createdAt,value
2019-05-23T00:00:58.834Z,3.02
2019-05-23T00:03:52.332Z,2.42
2019-05-23T00:06:42.254Z,2.67
2019-05-23T00:09:31.386Z,2.47
2019-05-23T00:12:22.704Z,2.70
2019-05-23T00:15:00.973Z,2.72
2019-05-23T00:17:33.192Z,3.10
2019-05-23T00:20:06.066Z,2.30
2019-05-23T00:22:36.360Z,2.90
2019-05-23T00:25:09.882Z,2.83
2019-05-23T00:27:43.174Z,3.10
2019-05-23T00:30:16.143Z,2.90
2019-05-23T00:32:48.374Z,3.10
2019-05-23T00:35:20.034Z,3.00
2019-05-23T00:37:51.336Z,3.10
2019-05-23T00:40:22.833Z,3.05
2019-05-23T00:42:53.989Z,3.10
2019-05-23T00:45:27.135Z,2.62
2019-05-23T00:47:57.488Z,3.37
2019-05-23T00:50:28.697Z,3.08
2019-05-23T00:52:59.809Z,3.10
2019-05-23T00:55:30.518Z,3.10
2019-05-23T00:58:01.487Z,2.52
2019-05-23T01:00:32.485Z,2.37
2019-05-23T01:03:02.937Z,2.50
2019-05-23T01:05:34.051Z,2.25
2019-05-23T01:08:06.005Z,2.40
2019-05-23T01:10:36.688Z,2.65
2019-05-23T01:13:08.767Z,2.60
2019-05-23T01:15:41.867Z,2.55
2019-05-23T01:18:13.337Z,2.22
2019-05-23T01:21:03.158Z,2.33
2019-05-23T01:23:40.836Z,2.25
2019-05-23T01:26:12.457Z,2.20
2019-05-23T01:28:44.381Z,3.00
2019-05-23T01:31:32.959Z,2.58
2019-05-23T01:34:05.521Z,2.42
2019-05-23T01:36:38.301Z,2.30
2019-05-23T01:39:10.382Z,2.22
2019-05-23T01:41:42.244Z,2.70
2019-05-23T01:44:13.541Z,2.25
2019-05-23T01:46:45.117Z,2.47
2019-05-23T01:49:15.841Z,2.13
2019-05-23T01:51:46.175Z,2.33
2019-05-23T01:54:16.717Z,2.15
2019-05-23T01:56:48.105Z,2.08
2019-05-23T01:59:19.398Z,2.22
2019-05-23T02:01:49.988Z,2.12
2019-05-23T02:04:20.673Z,2.10
2019-05-23T02:06:51.268Z,2.10
2019-05-23T02:09:22.351Z,2.30
2019-05-23T02:11:53.037Z,2.15
2019-05-23T02:14:23.447Z,2.50
2019-05-23T02:16:55.973Z,2.10
2019-05-23T02:19:26.885Z,2.27
2019-05-23T02:21:58.769Z,1.90
2019-05-23T02:24:29.950Z,1.87
2019-05-23T02:27:01.929Z,1.90
2019-05-23T02:29:32.657Z,1.85
2019-05-23T02:32:05.482Z,2.22
2019-05-23T02:34:37.869Z,1.90
2019-05-23T02:37:26.947Z,2.37
2019-05-23T02:39:58.808Z,2.40
2019-05-23T02:42:34.759Z,2.45
2019-05-23T02:45:09.537Z,2.10
2019-05-23T02:47:42.637Z,2.40
2019-05-23T02:50:17.457Z,2.52
2019-05-23T02:52:50.461Z,2.05
2019-05-23T02:55:23.721Z,2.17
2019-05-23T02:57:54.403Z,2.12
2019-05-23T03:01:01.329Z,2.40
2019-05-23T03:07:23.852Z,2.42
2019-05-23T03:13:53.526Z,2.35
2019-05-23T03:20:11.444Z,2.35
2019-05-23T03:37:27.323Z,2.98
2019-05-23T03:46:57.665Z,4.75
2019-05-23T03:53:10.992Z,4.95
2019-05-23T03:59:12.988Z,2.52
2019-05-23T04:01:48.194Z,2.00
2019-05-23T04:04:24.294Z,2.15
2019-05-23T04:06:57.377Z,3.08
2019-05-23T04:09:28.066Z,2.70
2019-05-23T04:15:40.983Z,2.40
2019-05-23T04:18:17.434Z,2.40
2019-05-23T04:20:47.505Z,2.52
2019-05-23T04:23:17.940Z,3.10
2019-05-23T04:26:29.570Z,4.08
2019-05-23T04:29:00.174Z,3.05
2019-05-23T04:31:30.404Z,2.55
2019-05-23T04:37:42.560Z,2.70
2019-05-23T04:40:17.381Z,3.15
2019-05-23T04:42:47.735Z,3.25
2019-05-23T04:45:19.027Z,4.00
2019-05-23T04:51:30.039Z,3.25
2019-05-23T04:57:47.222Z,2.95
2019-05-23T05:04:00.086Z,2.72
2019-05-23T05:06:31.634Z,2.80
2019-05-23T05:09:02.623Z,2.77
2019-05-23T05:11:33.578Z,2.90
2019-05-23T05:17:46.547Z,3.22
2019-05-23T05:24:03.644Z,3.22
2019-05-23T05:30:21.485Z,3.72
2019-05-23T05:36:34.102Z,3.08
2019-05-23T05:42:54.672Z,2.98
2019-05-23T05:45:24.892Z,2.80
2019-05-23T05:55:08.159Z,3.05
2019-05-23T05:57:38.597Z,3.12
2019-05-23T06:00:23.366Z,2.60
2019-05-23T06:03:03.600Z,3.25
2019-05-23T06:05:29.102Z,3.47
2019-05-23T06:07:59.999Z,3.60
2019-05-23T06:10:43.389Z,4.85
2019-05-23T06:13:15.394Z,4.53
2019-05-23T06:15:45.959Z,4.15
2019-05-23T06:18:16.852Z,4.22
2019-05-23T06:20:48.134Z,5.00
2019-05-23T06:23:24.118Z,4.00
2019-05-23T06:25:54.726Z,6.45
2019-05-23T06:28:30.823Z,8.00
2019-05-23T06:31:02.130Z,5.20
2019-05-23T06:33:32.815Z,4.90
2019-05-23T06:36:03.279Z,3.67
2019-05-23T06:38:41.156Z,3.15
2019-05-23T06:41:12.236Z,3.30
2019-05-23T06:43:42.733Z,3.42
2019-05-23T06:46:14.333Z,3.85
2019-05-23T06:48:45.894Z,4.70
2019-05-23T06:51:17.529Z,4.20
2019-05-23T06:53:48.549Z,3.27
2019-05-23T06:56:22.589Z,2.30
2019-05-23T06:58:52.818Z,2.33
2019-05-23T07:01:24.711Z,2.47
2019-05-23T07:03:57.810Z,3.25
2019-05-23T07:06:29.626Z,3.25
2019-05-23T07:09:00.323Z,3.65
2019-05-23T07:11:30.965Z,3.12
2019-05-23T07:14:01.578Z,3.37
2019-05-23T07:16:38.873Z,3.92
2019-05-23T07:19:09.151Z,2.90
2019-05-23T07:21:41.344Z,3.10
2019-05-23T07:24:12.902Z,2.40
2019-05-23T07:26:43.443Z,3.10
2019-05-23T07:29:13.828Z,3.77
2019-05-23T07:31:53.647Z,4.53
2019-05-23T07:34:24.158Z,4.33
2019-05-23T07:36:54.715Z,3.87
2019-05-23T07:39:29.951Z,3.40
2019-05-23T07:42:00.594Z,3.98
2019-05-23T07:44:47.361Z,3.67
2019-05-23T07:47:07.487Z,6.10
2019-05-23T07:49:49.056Z,4.60
2019-05-23T07:52:22.377Z,5.83
2019-05-23T07:54:54.542Z,5.58
2019-05-23T07:57:26.273Z,5.50
2019-05-23T07:59:56.835Z,7.40
2019-05-23T08:02:36.567Z,7.10
2019-05-23T08:05:08.376Z,6.55
2019-05-23T08:07:40.319Z,7.70
2019-05-23T08:10:11.343Z,7.58
2019-05-23T08:12:41.896Z,7.62
2019-05-23T08:15:14.514Z,7.53
2019-05-23T08:20:21.235Z,6.00
2019-05-23T08:22:58.135Z,6.20
2019-05-23T08:25:28.315Z,7.83
2019-05-23T08:28:02.713Z,7.55
2019-05-23T08:30:33.201Z,7.67
2019-05-23T08:33:15.220Z,6.90
2019-05-23T08:35:46.945Z,6.05
2019-05-23T08:38:18.609Z,8.35
2019-05-23T08:40:49.754Z,8.30
2019-05-23T08:43:26.090Z,7.87
2019-05-23T08:45:56.789Z,7.75
2019-05-23T08:48:30.835Z,4.70
2019-05-23T08:51:01.087Z,5.08
2019-05-23T08:53:31.386Z,5.22
2019-05-23T08:56:01.895Z,5.10
2019-05-23T08:58:32.279Z,4.50
2019-05-23T09:01:02.547Z,11.55
2019-05-23T09:03:34.168Z,16.60
2019-05-23T09:06:04.711Z,7.47
2019-05-23T09:08:39.130Z,20.80
2019-05-23T09:11:09.429Z,4.70
2019-05-23T09:13:40.871Z,4.95
2019-05-23T09:16:11.675Z,4.80
2019-05-23T09:18:42.308Z,4.53
2019-05-23T09:21:12.967Z,5.33
2019-05-23T09:23:45.159Z,4.10
2019-05-23T09:26:17.002Z,4.17
2019-05-23T09:28:48.265Z,5.78
2019-05-23T09:33:52.979Z,4.10
2019-05-23T09:36:23.242Z,3.98
2019-05-23T09:38:58.031Z,4.20
2019-05-23T09:41:28.957Z,3.80
2019-05-23T09:44:00.248Z,3.22
2019-05-23T09:46:30.661Z,4.00
2019-05-23T09:49:11.029Z,4.08
2019-05-23T09:51:40.614Z,4.62
2019-05-23T09:54:15.455Z,3.72
2019-05-23T09:56:46.041Z,2.92
2019-05-23T09:59:16.294Z,3.30
2019-05-23T10:01:46.945Z,3.10
2019-05-23T10:04:18.377Z,3.58
2019-05-23T10:06:48.746Z,3.37
2019-05-23T10:09:22.060Z,3.20
2019-05-23T10:11:52.551Z,2.90
2019-05-23T10:14:30.687Z,2.60
2019-05-23T10:17:01.378Z,2.70
2019-05-23T10:19:32.132Z,2.70
2019-05-23T10:22:03.063Z,2.90
2019-05-23T10:24:43.860Z,4.28
2019-05-23T10:27:14.638Z,3.33
2019-05-23T10:29:50.640Z,3.37
2019-05-23T10:32:21.297Z,2.60
2019-05-23T10:34:51.706Z,2.40
2019-05-23T10:37:23.559Z,2.92
2019-05-23T10:39:56.377Z,3.00
2019-05-23T10:42:28.609Z,4.47
2019-05-23T10:47:30.859Z,3.02
2019-05-23T10:50:08.751Z,3.02
2019-05-23T10:52:40.860Z,2.95
2019-05-23T10:55:12.568Z,2.60
2019-05-23T10:57:43.404Z,3.25
2019-05-23T11:00:21.878Z,3.70
2019-05-23T11:02:52.569Z,2.45
2019-05-23T11:05:31.181Z,3.22
2019-05-23T11:08:02.968Z,2.47
2019-05-23T11:10:42.041Z,3.70
2019-05-23T11:13:12.306Z,3.37
2019-05-23T11:19:13.438Z,2.95
2019-05-23T11:22:23.533Z,3.50
2019-05-23T11:24:54.194Z,3.75
2019-05-23T11:27:24.713Z,3.85
2019-05-23T11:30:29.702Z,4.00
2019-05-23T11:33:00.391Z,3.10
2019-05-23T11:35:31.014Z,4.15
2019-05-23T11:38:48.806Z,3.58
2019-05-23T11:41:19.407Z,3.15
2019-05-23T11:44:48.341Z,3.60
2019-05-23T11:48:00.045Z,3.27
2019-05-23T11:50:32.772Z,3.58
2019-05-23T11:53:03.066Z,3.50
2019-05-23T11:56:14.853Z,3.52
2019-05-23T11:58:45.071Z,4.00
2019-05-23T12:01:20.822Z,3.50
2019-05-23T12:05:06.195Z,3.77
2019-05-23T12:10:08.061Z,3.90
2019-05-23T12:13:18.958Z,3.90
2019-05-23T12:15:49.732Z,3.80
2019-05-23T12:18:28.883Z,3.35
2019-05-23T12:21:00.389Z,4.58
2019-05-23T12:23:30.588Z,3.50
2019-05-23T12:29:52.387Z,4.10
2019-05-23T12:32:48.232Z,4.30
2019-05-23T12:35:18.559Z,3.47
2019-05-23T12:37:48.822Z,3.33
2019-05-23T12:40:31.687Z,3.37
2019-05-23T12:43:02.205Z,3.50
2019-05-23T12:45:32.856Z,3.40
2019-05-23T12:48:13.697Z,2.92
2019-05-23T12:50:45.598Z,2.98
2019-05-23T12:53:16.049Z,3.10
2019-05-23T12:55:50.283Z,2.90
2019-05-23T12:58:37.565Z,3.10
2019-05-23T13:01:09.700Z,3.87
2019-05-23T13:03:50.508Z,8.78
2019-05-23T13:06:21.324Z,3.12
2019-05-23T13:08:52.110Z,3.60
2019-05-23T13:15:05.214Z,3.02
2019-05-23T13:21:23.105Z,3.27
2019-05-23T13:27:38.942Z,3.55
2019-05-23T13:31:08.026Z,15.23
2019-05-23T13:33:38.396Z,3.55
2019-05-23T13:36:08.693Z,3.52
2019-05-23T13:42:20.299Z,3.08
2019-05-23T13:48:40.557Z,4.53
2019-05-23T13:54:57.711Z,4.72
2019-05-23T13:57:59.367Z,4.47
2019-05-23T14:00:30.471Z,4.47
2019-05-23T14:03:00.983Z,4.15
2019-05-23T14:09:18.046Z,3.95
2019-05-23T14:11:48.306Z,5.90
2019-05-23T14:14:18.734Z,5.58
2019-05-23T14:16:59.678Z,4.22
2019-05-23T14:19:30.613Z,4.00
2019-05-23T14:25:52.397Z,3.35
2019-05-23T14:35:09.344Z,3.00
2019-05-23T14:37:43.962Z,3.02
2019-05-23T14:53:50.707Z,3.98
2019-05-23T15:07:28.766Z,2.90
2019-05-23T15:10:00.435Z,2.80
2019-05-23T15:12:31.570Z,2.65
2019-05-23T15:18:50.247Z,2.87
2019-05-23T15:21:20.873Z,2.52
2019-05-23T15:27:37.493Z,2.80
2019-05-23T15:34:03.357Z,3.42
2019-05-23T15:40:19.948Z,5.05
2019-05-23T15:46:32.039Z,3.33
2019-05-23T15:49:24.152Z,3.10
2019-05-23T15:51:59.354Z,3.08
2019-05-23T16:04:41.717Z,3.20
2019-05-23T16:11:07.907Z,3.25
2019-05-23T16:17:07.797Z,4.42
2019-05-23T16:19:38.086Z,3.62
2019-05-23T16:22:14.150Z,4.05
2019-05-23T16:25:04.971Z,4.58
2019-05-23T16:27:36.456Z,3.70
2019-05-23T16:30:07.658Z,4.70
2019-05-23T16:32:37.924Z,3.85
2019-05-23T16:35:08.630Z,3.90
2019-05-23T16:37:38.990Z,4.37
2019-05-23T16:40:27.400Z,4.40
2019-05-23T16:42:57.658Z,3.50
2019-05-23T16:45:36.636Z,4.10
2019-05-23T16:48:07.077Z,4.22
2019-05-23T16:50:51.300Z,3.70
2019-05-23T16:53:22.790Z,4.50
2019-05-23T16:55:55.775Z,3.70
2019-05-23T16:58:53.972Z,3.47
2019-05-23T17:01:35.952Z,3.80
2019-05-23T17:04:25.815Z,3.62
2019-05-23T17:10:08.875Z,3.75
2019-05-23T17:12:41.915Z,3.70
2019-05-23T17:15:16.613Z,4.45
2019-05-23T17:18:02.634Z,4.35
2019-05-23T17:20:38.520Z,3.60
2019-05-23T17:23:10.281Z,3.92
2019-05-23T17:25:42.191Z,3.65
2019-05-23T17:28:14.318Z,4.22
2019-05-23T17:30:53.940Z,3.80
2019-05-23T17:33:25.113Z,4.35
2019-05-23T17:35:56.914Z,4.33
2019-05-23T17:38:27.368Z,4.62
2019-05-23T17:41:06.190Z,4.17
2019-05-23T17:43:37.045Z,5.05
2019-05-23T17:46:23.797Z,6.70
2019-05-23T17:48:54.255Z,10.88
2019-05-23T17:51:27.067Z,7.37
2019-05-23T17:53:58.842Z,5.03
2019-05-23T17:56:31.160Z,11.68
2019-05-23T17:59:01.549Z,5.78
2019-05-23T18:01:43.029Z,5.90
2019-05-23T18:04:13.819Z,6.30
2019-05-23T18:06:44.053Z,5.87
2019-05-23T18:09:18.737Z,6.97
2019-05-23T18:11:49.272Z,6.72
2019-05-23T18:14:24.269Z,7.92
2019-05-23T18:16:54.709Z,7.92
2019-05-23T18:19:27.276Z,6.80
2019-05-23T18:21:57.606Z,5.75
2019-05-23T18:24:30.960Z,6.00
2019-05-23T18:27:01.307Z,5.65
2019-05-23T18:29:33.514Z,5.62
2019-05-23T18:32:05.493Z,6.50
2019-05-23T18:34:36.680Z,6.80
2019-05-23T18:37:07.803Z,5.47
2019-05-23T18:39:46.781Z,5.55
2019-05-23T18:42:17.289Z,5.50
2019-05-23T18:44:49.625Z,5.78
2019-05-23T18:49:58.348Z,6.12
2019-05-23T18:52:32.686Z,6.53
2019-05-23T18:55:03.671Z,6.40
2019-05-23T18:57:34.386Z,6.58
2019-05-23T19:00:06.799Z,6.10
2019-05-23T19:02:47.202Z,7.55
2019-05-23T19:05:18.607Z,7.10
2019-05-23T19:07:52.352Z,6.77
2019-05-23T19:10:33.845Z,7.33
2019-05-23T19:13:04.129Z,8.05
2019-05-23T19:15:34.717Z,6.92
2019-05-23T19:18:05.502Z,5.53
2019-05-23T19:20:36.555Z,5.80
2019-05-23T19:23:11.618Z,5.95
2019-05-23T19:25:43.358Z,7.42
2019-05-23T19:28:14.322Z,6.72
2019-05-23T19:30:46.180Z,6.83
2019-05-23T19:33:16.966Z,6.37
2019-05-23T19:35:51.984Z,6.42
2019-05-23T19:38:22.368Z,6.03
2019-05-23T19:40:55.846Z,6.55
2019-05-23T19:43:26.650Z,6.53
2019-05-23T19:45:58.625Z,6.50
2019-05-23T19:48:33.281Z,9.35
2019-05-23T19:51:03.980Z,6.90
2019-05-23T19:53:36.055Z,7.60
2019-05-23T19:56:07.522Z,6.72
2019-05-23T19:58:38.965Z,6.80
2019-05-23T20:01:10.603Z,6.72
2019-05-23T20:03:41.250Z,7.12
2019-05-23T20:06:11.791Z,5.97
2019-05-23T20:08:50.504Z,6.55
2019-05-23T20:11:21.873Z,6.35
2019-05-23T20:13:52.600Z,6.37
2019-05-23T20:16:28.282Z,5.67
2019-05-23T20:18:59.718Z,5.58
2019-05-23T20:24:29.191Z,6.25
2019-05-23T20:26:59.446Z,6.33
2019-05-23T20:29:37.905Z,6.80
2019-05-23T20:32:09.415Z,6.60
2019-05-23T20:34:39.902Z,7.15
2019-05-23T20:37:10.450Z,6.22
2019-05-23T20:39:42.744Z,6.53
2019-05-23T20:42:13.049Z,5.80
2019-05-23T20:44:47.235Z,6.80
2019-05-23T20:47:17.903Z,7.00
2019-05-23T20:49:55.256Z,6.12
2019-05-23T20:52:25.509Z,7.47
2019-05-23T20:55:01.908Z,6.25
2019-05-23T20:57:31.926Z,7.28
2019-05-23T21:00:09.007Z,6.95
2019-05-23T21:02:39.781Z,8.43
2019-05-23T21:05:15.623Z,7.35
2019-05-23T21:07:45.917Z,6.72
2019-05-23T21:10:35.496Z,6.67
2019-05-23T21:13:05.795Z,7.12
2019-05-23T21:15:40.909Z,6.95
2019-05-23T21:18:11.682Z,7.58
2019-05-23T21:20:44.346Z,7.25
2019-05-23T21:23:18.971Z,7.28
2019-05-23T21:25:51.233Z,7.17
2019-05-23T21:28:27.957Z,6.97
2019-05-23T21:30:58.177Z,8.30
2019-05-23T21:33:31.741Z,7.62
2019-05-23T21:36:02.012Z,8.78
2019-05-23T21:38:33.311Z,7.53
2019-05-23T21:41:03.823Z,7.47
2019-05-23T21:43:35.456Z,7.87
2019-05-23T21:46:05.754Z,7.03
2019-05-23T21:48:49.247Z,7.95
2019-05-23T21:51:19.809Z,8.00
2019-05-23T21:53:50.139Z,7.37
2019-05-23T21:56:20.327Z,7.10
2019-05-23T21:59:01.947Z,7.35
2019-05-23T22:01:42.961Z,9.63
2019-05-23T22:04:28.331Z,9.13
2019-05-23T22:07:00.842Z,10.00
2019-05-23T22:09:31.438Z,8.95
2019-05-23T22:12:04.637Z,9.48
2019-05-23T22:14:35.663Z,8.68
2019-05-23T22:17:06.109Z,8.63
2019-05-23T22:19:38.832Z,8.58
2019-05-23T22:22:10.557Z,8.55
2019-05-23T22:24:40.888Z,7.50
2019-05-23T22:27:11.207Z,7.40
2019-05-23T22:29:41.492Z,7.42
2019-05-23T22:32:13.308Z,7.33
2019-05-23T22:34:57.465Z,7.55
2019-05-23T22:37:27.679Z,7.25
2019-05-23T22:40:25.990Z,7.03
2019-05-23T22:42:57.822Z,7.50
2019-05-23T22:45:28.954Z,7.47
2019-05-23T22:47:59.240Z,7.10
2019-05-23T22:50:29.537Z,7.28
2019-05-23T22:52:59.820Z,6.90
2019-05-23T22:55:31.513Z,6.53
2019-05-23T22:58:01.792Z,6.90
2019-05-23T23:00:33.617Z,6.80
2019-05-23T23:03:05.053Z,7.28
2019-05-23T23:05:35.482Z,7.27
2019-05-23T23:08:05.728Z,6.85
2019-05-23T23:10:43.657Z,6.90
2019-05-23T23:13:15.566Z,6.65
2019-05-23T23:15:45.951Z,6.70
2019-05-23T23:18:16.267Z,6.35
2019-05-23T23:20:46.497Z,6.92
2019-05-23T23:23:17.078Z,7.33
2019-05-23T23:26:00.472Z,6.42
2019-05-23T23:28:30.880Z,6.40
2019-05-23T23:31:01.198Z,6.90
2019-05-23T23:33:32.494Z,7.47
2019-05-23T23:36:02.829Z,6.62
2019-05-23T23:38:33.553Z,9.20
2019-05-23T23:41:36.469Z,7.08
2019-05-23T23:44:14.102Z,6.97
2019-05-23T23:47:10.164Z,6.80
2019-05-23T23:49:59.522Z,7.12
2019-05-23T23:52:47.700Z,7.40
2019-05-23T23:55:36.741Z,8.60
2019-05-23T23:58:06.571Z,7.65
